Time;durP1;ratioP1;P1;durP2;ratioP2;P2;SDS_P1;SDS_P2;PMS_P1;PMS_P2;Temp;Humidity;BMP_temperature;BMP_pressure;BME280_temperature;BME280_humidity;BME280_pressure;Samples;Min_cycle;Max_cycle;Signal;HPM_P1;HPM_P2
2021/12/25 00:01:30;;;;;;;1.50;1.40;;;5.40;99.90;;;;;;4905708;29;20226;-76
2021/12/25 00:04:13;;;;;;;3.13;1.13;;;5.30;99.90;;;;;;4901700;29;20274;-71
2021/12/25 00:06:52;;;;;;;32.13;6.38;;;5.20;99.90;;;;;;4904291;29;20293;-74
2021/12/25 00:09:22;;;;;;;1.98;1.58;;;5.10;99.90;;;;;;4905891;29;20245;-73
2021/12/25 00:11:53;;;;;;;2.63;1.40;;;5.10;99.90;;;;;;4908023;29;20638;-73
2021/12/25 00:14:27;;;;;;;1.90;1.30;;;5.10;99.90;;;;;;4909216;29;20237;-71
2021/12/25 00:17:00;;;;;;;1.70;1.58;;;5.00;99.90;;;;;;4908637;29;20285;-71
2021/12/25 00:19:43;;;;;;;3.25;1.67;;;5.00;99.90;;;;;;4905945;29;20298;-72
2021/12/25 00:22:37;;;;;;;4.40;1.35;;;5.10;99.90;;;;;;4942731;28;20215;-71
2021/12/25 00:25:12;;;;;;;2.42;2.22;;;5.10;99.90;;;;;;4998338;28;20238;-71
2021/12/25 00:27:52;;;;;;;3.50;3.20;;;5.00;99.90;;;;;;5001051;28;20533;-71
2021/12/25 00:30:31;;;;;;;4.00;3.60;;;5.00;99.90;;;;;;4998780;28;20717;-70
2021/12/25 00:33:30;;;;;;;3.00;2.80;;;5.10;99.90;;;;;;4990354;28;20591;-73
2021/12/25 00:36:01;;;;;;;3.42;2.40;;;5.00;99.90;;;;;;4997292;28;20219;-72
2021/12/25 00:38:32;;;;;;;6.15;2.83;;;5.00;99.90;;;;;;5000996;28;20214;-71
2021/12/25 00:41:03;;;;;;;1.50;1.40;;;5.00;99.90;;;;;;5001407;28;20266;-73
2021/12/25 00:43:34;;;;;;;2.58;1.63;;;5.10;99.90;;;;;;4995267;28;20220;-72
2021/12/25 00:46:05;;;;;;;2.05;1.95;;;4.90;99.90;;;;;;4999877;28;20307;-74
2021/12/25 00:48:36;;;;;;;1.65;1.55;;;4.90;99.90;;;;;;4998414;28;21007;-71
2021/12/25 00:51:09;;;;;;;1.60;1.50;;;4.80;99.90;;;;;;4997733;28;20223;-76
2021/12/25 00:53:40;;;;;;;1.70;1.60;;;4.80;99.90;;;;;;5001899;28;20232;-73
2021/12/25 00:56:11;;;;;;;3.42;1.77;;;4.70;99.90;;;;;;4999284;28;20224;-72
2021/12/25 00:58:42;;;;;;;2.75;1.48;;;4.70;99.90;;;;;;4998546;28;20640;-71
2021/12/25 01:01:13;;;;;;;3.25;1.60;;;4.70;99.90;;;;;;5004952;28;20223;-72
2021/12/25 01:03:44;;;;;;;1.63;1.52;;;4.70;99.90;;;;;;4995520;28;20230;-69
2021/12/25 01:06:17;;;;;;;2.15;1.95;;;4.70;99.90;;;;;;5009433;28;20230;-69
2021/12/25 01:08:48;;;;;;;3.15;2.50;;;4.70;99.90;;;;;;5003671;28;20223;-72
2021/12/25 01:11:19;;;;;;;5.88;3.38;;;4.70;99.90;;;;;;4998766;28;20224;-72
2021/12/25 01:13:56;;;;;;;2.40;2.30;;;4.70;99.90;;;;;;5002538;28;20219;-71
2021/12/25 01:16:54;;;;;;;2.20;2.10;;;4.70;99.90;;;;;;4998308;28;20686;-71
2021/12/25 01:25:28;;;;;;;2.78;2.55;;;4.60;99.90;;;;;;4997695;28;20238;-71
2021/12/25 01:30:55;;;;;;;2.70;2.50;;;4.70;99.90;;;;;;5005648;28;20226;-70
2021/12/25 01:33:54;;;;;;;2.75;2.55;;;4.70;99.90;;;;;;4993411;28;20219;-71
2021/12/25 01:36:36;;;;;;;2.58;2.38;;;4.90;99.90;;;;;;4988224;28;20306;-70
2021/12/25 01:39:15;;;;;;;2.75;2.53;;;4.90;99.90;;;;;;5001677;28;20228;-72
2021/12/25 01:47:44;;;;;;;3.05;2.42;;;4.90;99.90;;;;;;5008401;28;20692;-71
2021/12/25 01:47:50;;;;;;;2.20;2.10;;;5.00;99.90;;;;;;5000463;28;20638;-69
2021/12/25 01:50:23;;;;;;;3.10;2.75;;;5.00;99.90;;;;;;4998255;28;20703;-69
2021/12/25 01:52:56;;;;;;;3.15;2.90;;;4.90;99.90;;;;;;4993191;28;20216;-69
2021/12/25 01:55:29;;;;;;;3.83;3.53;;;4.90;99.90;;;;;;5003953;28;20230;-69
2021/12/25 01:58:02;;;;;;;4.30;3.90;;;5.00;99.90;;;;;;5008535;28;20601;-76
2021/12/25 02:00:36;;;;;;;3.42;3.15;;;4.90;99.90;;;;;;4990787;28;20207;-68
2021/12/25 02:03:10;;;;;;;3.78;3.47;;;4.90;99.90;;;;;;4989681;28;20299;-69
2021/12/25 02:05:40;;;;;;;4.10;3.65;;;5.00;99.90;;;;;;4995349;28;20215;-70
2021/12/25 02:08:24;;;;;;;4.40;4.00;;;5.00;99.90;;;;;;4996744;28;20714;-73
2021/12/25 02:10:57;;;;;;;4.85;4.35;;;5.00;99.90;;;;;;4992829;28;20299;-75
2021/12/25 02:13:28;;;;;;;3.10;2.80;;;5.10;99.90;;;;;;5003775;28;20230;-72
2021/12/25 02:16:00;;;;;;;2.75;2.55;;;5.00;99.90;;;;;;5007509;28;20238;-76
2021/12/25 02:18:44;;;;;;;2.90;2.70;;;5.00;99.90;;;;;;4998869;28;20249;-72
2021/12/25 02:21:20;;;;;;;2.80;2.60;;;5.00;99.90;;;;;;5000769;28;20581;-72
2021/12/25 02:23:51;;;;;;;3.13;2.80;;;5.00;99.90;;;;;;5011352;28;20345;-77
2021/12/25 02:26:24;;;;;;;3.08;2.88;;;5.00;99.90;;;;;;5006929;28;20299;-74
2021/12/25 02:28:55;;;;;;;3.95;2.78;;;5.00;99.90;;;;;;4998225;28;20237;-75
2021/12/25 02:31:28;;;;;;;2.67;2.47;;;5.10;99.90;;;;;;4994844;28;20227;-76
2021/12/25 02:33:59;;;;;;;2.60;2.40;;;5.00;99.90;;;;;;4992051;28;20701;-78
2021/12/25 02:36:31;;;;;;;4.85;3.17;;;4.90;99.90;;;;;;4999422;28;20219;-72
2021/12/25 02:39:02;;;;;;;3.70;3.40;;;4.90;99.90;;;;;;4991323;28;20223;-74
2021/12/25 02:41:38;;;;;;;3.60;2.50;;;4.90;99.90;;;;;;4993892;28;20214;-76
2021/12/25 02:44:10;;;;;;;3.45;2.75;;;4.90;99.90;;;;;;4997902;28;20232;-76
2021/12/25 02:46:42;;;;;;;2.53;2.30;;;4.90;99.90;;;;;;5005884;28;20240;-71
2021/12/25 02:49:13;;;;;;;2.00;1.90;;;4.80;99.90;;;;;;4999231;28;20267;-71
2021/12/25 02:51:47;;;;;;;1.90;1.80;;;4.70;99.90;;;;;;4998358;28;20237;-71
2021/12/25 02:54:18;;;;;;;3.95;3.35;;;4.70;99.90;;;;;;5002298;28;20223;-71
2021/12/25 02:56:49;;;;;;;2.80;2.60;;;4.60;99.90;;;;;;4993028;28;20311;-65
2021/12/25 02:59:20;;;;;;;3.83;3.00;;;4.60;99.90;;;;;;4990070;28;20227;-68
2021/12/25 03:02:07;;;;;;;3.45;2.72;;;4.60;99.90;;;;;;4988932;28;20219;-64
2021/12/25 03:04:40;;;;;;;3.70;2.50;;;4.60;99.90;;;;;;5001318;28;20281;-63
2021/12/25 03:07:13;;;;;;;4.25;3.15;;;4.60;99.90;;;;;;5002670;28;20699;-63
2021/12/25 03:09:44;;;;;;;6.25;4.28;;;4.70;99.90;;;;;;4994776;28;20242;-68
2021/12/25 03:12:17;;;;;;;3.80;3.50;;;4.60;99.90;;;;;;5000703;28;20239;-68
2021/12/25 03:17:33;;;;;;;6.95;3.83;;;4.60;99.90;;;;;;4997270;28;20238;-67
2021/12/25 03:20:06;;;;;;;4.50;3.92;;;4.60;99.90;;;;;;4986576;28;20227;-68
2021/12/25 03:22:38;;;;;;;4.25;3.95;;;4.60;99.90;;;;;;5000861;28;20239;-67
2021/12/25 03:25:10;;;;;;;13.82;5.70;;;4.70;99.90;;;;;;4998228;28;20670;-66
2021/12/25 03:27:42;;;;;;;4.45;3.55;;;4.70;99.90;;;;;;4990620;28;20219;-66
2021/12/25 03:30:16;;;;;;;5.28;4.78;;;4.70;99.90;;;;;;4992201;28;20310;-66
2021/12/25 03:32:47;;;;;;;4.65;4.25;;;4.60;99.90;;;;;;4995622;28;20219;-67
2021/12/25 03:35:19;;;;;;;5.40;4.97;;;4.60;99.90;;;;;;4992441;28;20220;-66
2021/12/25 03:37:51;;;;;;;4.38;3.83;;;4.60;99.90;;;;;;4990753;28;20231;-65
2021/12/25 03:40:22;;;;;;;4.28;3.88;;;4.70;99.90;;;;;;4997245;28;20270;-64
2021/12/25 03:42:53;;;;;;;3.53;3.33;;;4.70;99.90;;;;;;4990338;28;20618;-64
2021/12/25 03:45:24;;;;;;;2.42;2.15;;;4.70;99.90;;;;;;4997766;28;20219;-64
2021/12/25 03:48:05;;;;;;;4.25;3.65;;;4.60;99.90;;;;;;5004375;28;20250;-64
2021/12/25 03:53:38;;;;;;;2.60;2.40;;;4.60;99.90;;;;;;5007780;28;20243;-64
2021/12/25 03:58:58;;;;;;;4.40;3.10;;;4.60;99.90;;;;;;4989264;28;20623;-65
2021/12/25 04:01:33;;;;;;;3.70;2.95;;;4.60;99.90;;;;;;4992976;28;20340;-65
2021/12/25 04:04:07;;;;;;;2.97;2.78;;;4.70;99.90;;;;;;4986288;28;20220;-64
2021/12/25 04:06:46;;;;;;;15.85;11.90;;;4.70;99.90;;;;;;4986965;28;20249;-65
2021/12/25 04:09:24;;;;;;;21.30;15.57;;;4.70;99.90;;;;;;4992753;28;20220;-65
2021/12/25 04:11:56;;;;;;;6.57;5.95;;;4.70;99.90;;;;;;5001749;28;20322;-64
2021/12/25 04:14:27;;;;;;;2.92;2.50;;;4.70;99.90;;;;;;4985331;28;20224;-66
2021/12/25 04:16:57;;;;;;;3.08;2.60;;;4.80;99.90;;;;;;4987186;28;20553;-66
2021/12/25 04:19:28;;;;;;;2.40;2.20;;;4.80;99.90;;;;;;4990495;28;20234;-67
2021/12/25 04:22:02;;;;;;;4.88;4.45;;;4.80;99.90;;;;;;4987170;28;20211;-67
2021/12/25 04:24:39;;;;;;;2.40;2.20;;;4.80;99.90;;;;;;5000693;28;20238;-66
2021/12/25 04:27:13;;;;;;;3.58;3.20;;;4.80;99.90;;;;;;5008509;28;20218;-66
2021/12/25 04:29:49;;;;;;;6.65;6.07;;;4.80;99.90;;;;;;4999672;28;20683;-66
2021/12/25 04:33:08;;;;;;;2.22;1.75;;;4.70;99.90;;;;;;5005615;28;20241;-67
2021/12/25 04:50:05;;;;;;;10.60;9.70;;;4.50;99.90;;;;;;5001295;28;20222;-65
2021/12/25 05:03:54;;;;;;;3.03;2.83;;;4.50;99.90;;;;;;4997592;28;20227;-65
2021/12/25 05:06:25;;;;;;;2.85;2.60;;;4.40;99.90;;;;;;4994231;28;20215;-66
2021/12/25 05:08:57;;;;;;;6.38;5.35;;;4.40;99.90;;;;;;4990982;28;20219;-66
2021/12/25 05:11:28;;;;;;;2.00;1.60;;;4.30;99.90;;;;;;4997109;28;20235;-65
2021/12/25 05:14:00;;;;;;;1.50;1.40;;;4.30;99.90;;;;;;5001282;28;20569;-66
2021/12/25 05:16:31;;;;;;;7.13;2.10;;;4.20;99.90;;;;;;4997640;28;20215;-66
2021/12/25 05:19:04;;;;;;;2.35;1.70;;;4.10;99.90;;;;;;5002139;28;20229;-66
2021/12/25 05:21:37;;;;;;;2.10;2.00;;;4.10;99.90;;;;;;4999732;28;20297;-67
2021/12/25 05:24:08;;;;;;;2.20;2.10;;;4.10;99.90;;;;;;4993134;28;20237;-66
2021/12/25 05:26:40;;;;;;;2.13;1.63;;;4.10;99.90;;;;;;4987400;28;20711;-66
2021/12/25 05:29:22;;;;;;;2.55;1.75;;;4.20;99.90;;;;;;5003206;28;20550;-66
2021/12/25 05:31:54;;;;;;;4.10;2.70;;;4.20;99.90;;;;;;4994458;28;20242;-66
2021/12/25 05:34:27;;;;;;;2.10;1.90;;;4.10;99.90;;;;;;5000025;28;20671;-66
2021/12/25 05:36:58;;;;;;;2.75;2.50;;;4.10;99.90;;;;;;4995803;28;20246;-67
2021/12/25 05:39:29;;;;;;;4.45;4.00;;;4.10;99.90;;;;;;5004273;28;20223;-66
2021/12/25 05:42:00;;;;;;;4.13;3.53;;;4.10;99.90;;;;;;4999755;28;20223;-63
2021/12/25 05:44:32;;;;;;;3.22;2.95;;;4.10;99.90;;;;;;5005696;28;20226;-64
2021/12/25 05:47:03;;;;;;;6.22;3.60;;;4.20;99.90;;;;;;5001749;28;20215;-68
2021/12/25 05:49:36;;;;;;;2.60;2.40;;;4.20;99.90;;;;;;4999659;28;20218;-65
2021/12/25 05:52:08;;;;;;;3.15;2.88;;;4.20;99.90;;;;;;5007406;28;20554;-65
2021/12/25 05:54:39;;;;;;;2.67;2.47;;;4.20;99.90;;;;;;4999430;28;20230;-65
2021/12/25 05:57:10;;;;;;;4.53;3.83;;;4.20;99.90;;;;;;5010268;28;20329;-65
2021/12/25 05:59:42;;;;;;;1.60;1.50;;;4.20;99.90;;;;;;5009426;28;20227;-65
2021/12/25 06:02:13;;;;;;;4.00;2.20;;;4.20;99.90;;;;;;5008825;28;20219;-65
2021/12/25 06:04:44;;;;;;;1.77;1.67;;;4.10;99.90;;;;;;4996896;28;20226;-66
2021/12/25 06:07:15;;;;;;;2.05;1.85;;;4.10;99.90;;;;;;5009513;28;20271;-65
2021/12/25 06:09:46;;;;;;;3.20;3.00;;;4.00;99.90;;;;;;4990511;28;20219;-65
2021/12/25 06:12:19;;;;;;;6.18;2.03;;;4.00;99.90;;;;;;4986332;28;20561;-65
2021/12/25 06:14:53;;;;;;;6.03;5.43;;;4.00;99.90;;;;;;4987257;28;20231;-64
2021/12/25 06:17:24;;;;;;;4.30;3.90;;;4.00;99.90;;;;;;4998481;28;20226;-64
2021/12/25 06:19:55;;;;;;;3.72;3.28;;;4.00;99.90;;;;;;5008499;28;20223;-63
2021/12/25 06:22:26;;;;;;;3.17;2.65;;;3.90;99.90;;;;;;5004591;28;20222;-64
2021/12/25 06:24:57;;;;;;;2.75;1.73;;;4.00;99.90;;;;;;5002982;28;20236;-64
2021/12/25 06:27:28;;;;;;;1.88;1.77;;;4.00;99.90;;;;;;4990927;28;20259;-64
2021/12/25 06:30:01;;;;;;;4.35;3.42;;;4.00;99.90;;;;;;4990047;28;20227;-64
2021/12/25 06:32:31;;;;;;;2.40;2.20;;;3.90;99.90;;;;;;4990350;28;20648;-64
2021/12/25 06:35:04;;;;;;;2.33;1.98;;;3.90;99.90;;;;;;4991693;28;20783;-65
2021/12/25 06:37:35;;;;;;;5.13;4.65;;;3.90;99.90;;;;;;4988460;28;20222;-65
2021/12/25 06:40:08;;;;;;;1.30;1.20;;;3.80;99.90;;;;;;4988711;28;20220;-64
2021/12/25 06:42:39;;;;;;;2.15;2.05;;;3.80;99.90;;;;;;4998782;28;20276;-65
2021/12/25 06:45:12;;;;;;;2.05;1.90;;;3.80;99.90;;;;;;5005143;28;20234;-64
2021/12/25 06:47:42;;;;;;;2.30;2.00;;;3.70;99.90;;;;;;4995118;28;20249;-66
2021/12/25 06:50:14;;;;;;;1.40;1.30;;;3.70;99.90;;;;;;4997176;28;20303;-65
2021/12/25 06:52:45;;;;;;;19.23;16.45;;;3.70;99.90;;;;;;4996612;28;20223;-64
2021/12/25 06:55:16;;;;;;;1.88;1.70;;;3.80;99.90;;;;;;5010602;28;20230;-65
2021/12/25 06:57:52;;;;;;;4.63;3.10;;;3.80;99.90;;;;;;5008934;28;20207;-64
2021/12/25 07:00:27;;;;;;;3.22;3.00;;;3.80;99.90;;;;;;5001731;28;20219;-65
2021/12/25 07:02:57;;;;;;;3.05;1.65;;;3.70;99.90;;;;;;5008761;28;20291;-66
2021/12/25 07:05:28;;;;;;;3.78;3.47;;;3.80;99.90;;;;;;5005951;28;20223;-64
2021/12/25 07:08:00;;;;;;;16.88;14.85;;;3.80;99.90;;;;;;4992878;28;20219;-64
2021/12/25 07:10:31;;;;;;;8.02;5.97;;;3.90;99.90;;;;;;4991685;28;20649;-66
2021/12/25 07:13:02;;;;;;;9.32;8.38;;;3.90;99.90;;;;;;4988994;28;20245;-65
2021/12/25 07:15:34;;;;;;;3.55;2.55;;;3.90;99.90;;;;;;4989289;28;20243;-67
2021/12/25 07:18:07;;;;;;;6.50;5.28;;;3.90;99.90;;;;;;4991654;28;20311;-66
2021/12/25 07:20:39;;;;;;;1.70;1.60;;;4.00;99.90;;;;;;4990025;28;20227;-67
2021/12/25 07:23:17;;;;;;;3.80;2.88;;;4.00;99.90;;;;;;4998352;28;20261;-65
2021/12/25 07:25:48;;;;;;;26.15;22.67;;;4.00;99.90;;;;;;4998967;28;20223;-66
2021/12/25 07:28:22;;;;;;;12.48;10.32;;;4.10;99.90;;;;;;5004137;28;20219;-67
2021/12/25 07:30:55;;;;;;;3.40;2.35;;;4.00;99.90;;;;;;4997484;28;20226;-66
2021/12/25 07:33:26;;;;;;;1.50;1.40;;;4.10;99.90;;;;;;4995846;28;20232;-66
2021/12/25 07:35:57;;;;;;;11.00;9.13;;;4.10;99.90;;;;;;5003413;28;20247;-66
2021/12/25 07:38:28;;;;;;;1.98;1.80;;;4.20;99.90;;;;;;5002992;28;20597;-68
2021/12/25 07:40:59;;;;;;;10.30;5.72;;;4.20;99.90;;;;;;5004533;28;20224;-68
2021/12/25 07:43:30;;;;;;;2.15;1.60;;;4.20;99.90;;;;;;5001762;28;20219;-68
2021/12/25 07:46:03;;;;;;;1.48;1.38;;;4.10;99.90;;;;;;5009388;28;20302;-68
2021/12/25 07:48:34;;;;;;;1.27;1.05;;;4.20;99.90;;;;;;5001911;28;20219;-69
2021/12/25 07:51:05;;;;;;;0.82;0.73;;;4.20;99.90;;;;;;5008219;28;20219;-68
2021/12/25 07:53:36;;;;;;;2.00;1.80;;;4.20;99.90;;;;;;5002553;28;20683;-68
2021/12/25 07:56:07;;;;;;;2.13;1.70;;;4.30;99.90;;;;;;5003492;28;20226;-67
2021/12/25 07:58:38;;;;;;;2.67;1.77;;;4.20;99.90;;;;;;5008009;28;20297;-68
2021/12/25 08:01:10;;;;;;;1.88;1.60;;;4.10;99.90;;;;;;5008312;28;20223;-66
2021/12/25 08:03:41;;;;;;;1.60;1.33;;;4.20;99.90;;;;;;4998402;28;20217;-67
2021/12/25 08:06:12;;;;;;;4.35;1.60;;;4.10;99.90;;;;;;5001402;28;20246;-66
2021/12/25 08:08:43;;;;;;;0.60;0.60;;;4.10;99.90;;;;;;5007590;28;20259;-67
2021/12/25 08:11:14;;;;;;;0.90;0.90;;;4.10;99.90;;;;;;5004324;28;20234;-67
2021/12/25 08:13:45;;;;;;;6.30;2.60;;;4.20;99.90;;;;;;4998245;28;20238;-67
2021/12/25 08:16:17;;;;;;;0.85;0.85;;;4.20;99.90;;;;;;5009724;28;20245;-67
2021/12/25 08:18:48;;;;;;;1.20;1.10;;;4.20;99.90;;;;;;4997461;28;20298;-67
2021/12/25 08:21:19;;;;;;;1.02;0.93;;;4.10;99.90;;;;;;5003862;28;20218;-66
2021/12/25 08:23:50;;;;;;;0.80;0.80;;;4.20;99.90;;;;;;4999187;28;20235;-68
2021/12/25 08:26:20;;;;;;;0.80;0.80;;;4.20;99.90;;;;;;4996665;28;20220;-68
2021/12/25 08:28:51;;;;;;;0.73;0.73;;;4.20;99.90;;;;;;5002269;28;20305;-66
2021/12/25 08:31:24;;;;;;;0.70;0.70;;;4.20;99.90;;;;;;4994604;28;20276;-67
2021/12/25 08:33:55;;;;;;;0.75;0.63;;;4.20;99.90;;;;;;4996437;28;20290;-68
2021/12/25 08:36:27;;;;;;;0.98;0.93;;;4.20;99.90;;;;;;4986624;28;20662;-68
2021/12/25 08:38:57;;;;;;;0.77;0.63;;;4.20;99.90;;;;;;4988618;28;20240;-68
2021/12/25 08:41:30;;;;;;;2.45;0.90;;;4.20;99.90;;;;;;4991572;28;20224;-68
2021/12/25 08:44:07;;;;;;;0.60;0.60;;;4.20;99.90;;;;;;4996210;28;20219;-68
2021/12/25 08:46:50;;;;;;;0.57;0.55;;;4.20;99.90;;;;;;4988272;28;20228;-68
2021/12/25 08:49:28;;;;;;;0.55;0.55;;;4.20;99.90;;;;;;4995283;28;20247;-68
2021/12/25 08:52:00;;;;;;;0.68;0.55;;;4.20;99.90;;;;;;5002360;28;20633;-68
2021/12/25 08:54:32;;;;;;;1.40;1.30;;;4.10;99.90;;;;;;4994599;28;20235;-67
2021/12/25 08:57:02;;;;;;;0.75;0.55;;;4.10;99.90;;;;;;4999753;28;20226;-68
2021/12/25 08:59:34;;;;;;;0.82;0.80;;;4.10;99.90;;;;;;4999024;28;20218;-68
2021/12/25 09:02:13;;;;;;;2.92;1.70;;;4.10;99.90;;;;;;4991844;28;20225;-68
2021/12/25 09:04:46;;;;;;;0.60;0.60;;;4.20;99.90;;;;;;4987937;28;20306;-68
2021/12/25 09:07:18;;;;;;;0.32;0.32;;;4.20;99.90;;;;;;4998196;28;20336;-68
2021/12/25 09:09:49;;;;;;;0.60;0.60;;;4.30;99.90;;;;;;4997581;28;20214;-68
2021/12/25 09:12:21;;;;;;;0.73;0.73;;;4.30;99.90;;;;;;4995956;28;20659;-68
2021/12/25 09:14:52;;;;;;;1.73;0.73;;;4.30;99.90;;;;;;4989893;28;20321;-68
2021/12/25 09:17:24;;;;;;;0.47;0.47;;;4.30;99.90;;;;;;4988230;28;20349;-68
2021/12/25 09:19:55;;;;;;;0.63;0.63;;;4.30;99.90;;;;;;5001980;28;20254;-68
2021/12/25 09:22:26;;;;;;;1.67;0.95;;;4.20;99.90;;;;;;5003629;28;20222;-68
2021/12/25 09:24:57;;;;;;;1.05;0.70;;;4.10;99.90;;;;;;5006480;28;20253;-68
2021/12/25 09:27:27;;;;;;;0.73;0.73;;;4.10;99.90;;;;;;5010848;28;20554;-68
2021/12/25 09:29:58;;;;;;;1.75;0.63;;;4.10;99.90;;;;;;5008014;28;20698;-68
2021/12/25 09:32:31;;;;;;;1.33;0.77;;;4.20;99.90;;;;;;5010816;28;20695;-69
2021/12/25 09:35:02;;;;;;;0.82;0.82;;;4.10;99.90;;;;;;5007991;28;20227;-68
2021/12/25 09:37:33;;;;;;;0.60;0.60;;;4.10;99.90;;;;;;5010466;28;20219;-68
2021/12/25 09:40:05;;;;;;;0.88;0.70;;;4.20;99.90;;;;;;5005588;28;20229;-69
2021/12/25 09:42:38;;;;;;;0.52;0.52;;;4.20;99.90;;;;;;5009661;28;20226;-68
2021/12/25 09:45:10;;;;;;;0.60;0.50;;;4.20;99.90;;;;;;5010380;28;20691;-68
2021/12/25 09:47:43;;;;;;;0.50;0.50;;;4.20;99.90;;;;;;5010362;28;20341;-68
2021/12/25 09:50:14;;;;;;;0.77;0.77;;;4.30;99.90;;;;;;5009214;28;20219;-68
2021/12/25 09:52:46;;;;;;;0.80;0.60;;;4.30;99.90;;;;;;5001791;28;20223;-68
2021/12/25 09:55:18;;;;;;;0.82;0.55;;;4.30;99.90;;;;;;5010204;28;20254;-68
2021/12/25 09:57:49;;;;;;;0.80;0.60;;;4.30;99.90;;;;;;5009323;28;20211;-68
2021/12/25 10:00:23;;;;;;;0.85;0.50;;;4.20;99.90;;;;;;5006951;28;20599;-68
2021/12/25 10:03:16;;;;;;;0.73;0.70;;;4.30;99.90;;;;;;5003905;28;20282;-68
2021/12/25 10:05:49;;;;;;;0.57;0.57;;;4.20;99.90;;;;;;5008874;28;20423;-68
2021/12/25 10:08:22;;;;;;;1.10;0.50;;;4.30;99.90;;;;;;5009217;28;20219;-69
2021/12/25 10:10:57;;;;;;;1.52;0.52;;;4.30;99.90;;;;;;5008320;28;20223;-69
2021/12/25 10:13:29;;;;;;;0.80;0.60;;;4.30;99.90;;;;;;5009349;28;20222;-67
2021/12/25 10:16:01;;;;;;;0.73;0.70;;;4.30;99.90;;;;;;4996688;28;20322;-65
2021/12/25 10:18:36;;;;;;;0.70;0.70;;;4.40;99.90;;;;;;5006899;28;20250;-65
2021/12/25 10:21:22;;;;;;;0.47;0.47;;;4.40;99.90;;;;;;5008075;28;20225;-65
2021/12/25 10:24:17;;;;;;;0.70;0.70;;;4.40;99.90;;;;;;5001077;28;20239;-71
2021/12/25 10:26:49;;;;;;;0.77;0.55;;;4.30;99.90;;;;;;4998390;28;20218;-71
2021/12/25 10:29:22;;;;;;;0.60;0.55;;;4.30;99.90;;;;;;4998918;28;20230;-71
2021/12/25 10:31:59;;;;;;;0.70;0.68;;;4.30;99.90;;;;;;5006611;28;20246;-70
2021/12/25 10:34:33;;;;;;;0.82;0.50;;;4.30;99.90;;;;;;4998689;28;20242;-69
2021/12/25 10:37:09;;;;;;;0.63;0.63;;;4.30;99.90;;;;;;4990112;28;20224;-70
2021/12/25 10:39:41;;;;;;;0.40;0.40;;;4.30;99.90;;;;;;5001518;28;20241;-71
2021/12/25 10:42:16;;;;;;;0.63;0.47;;;4.30;99.90;;;;;;4996521;28;20211;-71
2021/12/25 10:44:49;;;;;;;0.50;0.50;;;4.30;99.90;;;;;;4991166;28;20226;-71
2021/12/25 10:47:23;;;;;;;0.50;0.50;;;4.30;99.90;;;;;;4990932;28;20220;-71
2021/12/25 10:49:57;;;;;;;0.93;0.40;;;4.40;99.90;;;;;;5002028;28;20222;-71
2021/12/25 10:52:29;;;;;;;0.73;0.43;;;4.30;99.90;;;;;;4996483;28;20325;-72
2021/12/25 10:55:03;;;;;;;0.40;0.30;;;4.30;99.90;;;;;;5006712;28;20609;-70
2021/12/25 10:57:38;;;;;;;1.08;0.40;;;4.40;99.90;;;;;;5009932;28;20219;-72
2021/12/25 11:00:12;;;;;;;0.40;0.30;;;4.40;99.90;;;;;;5001041;28;20242;-71
2021/12/25 11:02:45;;;;;;;1.08;0.60;;;4.40;99.90;;;;;;5003971;28;20216;-72
2021/12/25 11:05:23;;;;;;;0.52;0.40;;;4.40;99.90;;;;;;4991896;28;20238;-69
2021/12/25 11:08:06;;;;;;;0.50;0.40;;;4.40;99.90;;;;;;5002873;28;20218;-70
2021/12/25 11:10:45;;;;;;;0.50;0.40;;;4.30;99.90;;;;;;4996157;28;20234;-70
2021/12/25 11:13:21;;;;;;;0.70;0.30;;;4.30;99.90;;;;;;4992643;28;20231;-69
2021/12/25 11:16:00;;;;;;;0.90;0.43;;;4.20;99.90;;;;;;4992286;28;20565;-70
2021/12/25 11:18:32;;;;;;;0.50;0.45;;;4.30;99.90;;;;;;4993289;28;20227;-70
2021/12/25 11:21:11;;;;;;;0.60;0.60;;;4.20;99.90;;;;;;4998275;28;20743;-71
2021/12/25 11:23:43;;;;;;;0.38;0.20;;;4.20;99.90;;;;;;4999424;28;20713;-70
2021/12/25 11:26:14;;;;;;;0.52;0.40;;;4.20;99.90;;;;;;5009187;28;20313;-70
2021/12/25 11:28:45;;;;;;;0.73;0.68;;;4.20;99.90;;;;;;4993762;28;20219;-69
2021/12/25 11:31:16;;;;;;;0.47;0.38;;;4.30;99.90;;;;;;5005864;28;20223;-69
2021/12/25 11:33:47;;;;;;;0.63;0.38;;;4.20;99.90;;;;;;5003339;28;20223;-72
2021/12/25 11:36:20;;;;;;;1.70;0.80;;;4.20;99.90;;;;;;5000247;28;20279;-70
2021/12/25 11:38:52;;;;;;;0.30;0.30;;;4.20;99.90;;;;;;5006861;28;20671;-70
2021/12/25 11:41:28;;;;;;;0.60;0.50;;;4.20;99.90;;;;;;5007844;28;20683;-70
2021/12/25 11:44:03;;;;;;;0.73;0.45;;;4.20;99.90;;;;;;5006290;28;20219;-71
2021/12/25 11:46:39;;;;;;;0.40;0.35;;;4.20;99.90;;;;;;5009305;28;20219;-70
2021/12/25 11:49:13;;;;;;;0.88;0.35;;;4.20;99.90;;;;;;5004834;28;20301;-70
2021/12/25 11:51:46;;;;;;;0.40;0.30;;;4.20;99.90;;;;;;4999120;28;20299;-70
2021/12/25 11:54:54;;;;;;;0.88;0.30;;;4.20;99.90;;;;;;5008543;28;20651;-70
2021/12/25 11:57:48;;;;;;;0.70;0.40;;;4.10;99.90;;;;;;5006951;28;20227;-71
2021/12/25 12:00:37;;;;;;;0.40;0.32;;;4.10;99.90;;;;;;5002136;28;20241;-72
2021/12/25 12:03:09;;;;;;;0.40;0.30;;;4.20;99.90;;;;;;5007021;28;20646;-71
2021/12/25 12:05:40;;;;;;;0.40;0.40;;;4.20;99.90;;;;;;5006464;28;20207;-73
2021/12/25 12:08:15;;;;;;;0.82;0.60;;;4.20;99.90;;;;;;5010058;28;20222;-72
2021/12/25 12:10:57;;;;;;;0.98;0.30;;;4.20;99.90;;;;;;5008801;28;20234;-69
2021/12/25 12:13:30;;;;;;;0.52;0.50;;;4.10;99.90;;;;;;4994687;28;20314;-70
2021/12/25 12:16:03;;;;;;;0.45;0.32;;;4.20;99.90;;;;;;4996458;28;20704;-71
2021/12/25 12:18:39;;;;;;;0.50;0.38;;;4.10;99.90;;;;;;5003821;28;20921;-71
2021/12/25 12:21:40;;;;;;;0.55;0.35;;;4.10;99.90;;;;;;5008161;28;20229;-70
2021/12/25 12:24:49;;;;;;;3.83;0.50;;;4.20;99.90;;;;;;5005276;28;20722;-71
2021/12/25 12:27:34;;;;;;;0.65;0.40;;;4.10;99.90;;;;;;4996328;28;20223;-71
2021/12/25 12:30:08;;;;;;;0.30;0.30;;;4.10;99.90;;;;;;5004471;28;20227;-71
2021/12/25 12:32:44;;;;;;;0.68;0.40;;;4.10;99.90;;;;;;4995510;28;20219;-71
2021/12/25 12:35:35;;;;;;;0.57;0.57;;;4.10;99.90;;;;;;4988950;28;20239;-71
2021/12/25 12:38:37;;;;;;;2.95;0.55;;;4.10;99.90;;;;;;4998041;28;20219;-71
2021/12/25 12:41:27;;;;;;;1.17;0.40;;;4.10;99.90;;;;;;4983433;28;20233;-72
2021/12/25 12:44:04;;;;;;;0.85;0.40;;;4.10;99.90;;;;;;4993594;28;20215;-71
2021/12/25 12:47:10;;;;;;;2.10;0.60;;;4.10;99.90;;;;;;4997043;28;20214;-71
2021/12/25 12:49:59;;;;;;;0.40;0.30;;;4.20;99.90;;;;;;4988982;28;20734;-73
2021/12/25 12:52:38;;;;;;;0.75;0.30;;;4.20;99.90;;;;;;5009763;28;20215;-70
2021/12/25 12:55:12;;;;;;;0.45;0.35;;;4.20;99.90;;;;;;5008888;28;20373;-70
2021/12/25 12:57:46;;;;;;;0.60;0.50;;;4.10;99.90;;;;;;5009447;28;20590;-70
2021/12/25 13:00:20;;;;;;;1.05;0.30;;;4.10;99.90;;;;;;4992063;28;20233;-70
2021/12/25 13:02:52;;;;;;;0.40;0.40;;;4.00;99.90;;;;;;4996499;28;20219;-70
2021/12/25 13:05:28;;;;;;;0.85;0.50;;;4.00;99.90;;;;;;5002796;28;20298;-69
2021/12/25 13:08:01;;;;;;;0.60;0.40;;;4.10;99.90;;;;;;5002863;28;20540;-71
2021/12/25 13:10:37;;;;;;;0.35;0.35;;;4.10;99.90;;;;;;4995240;28;20603;-68
2021/12/25 13:13:12;;;;;;;2.67;0.40;;;4.10;99.90;;;;;;5005846;28;20330;-73
2021/12/25 13:15:44;;;;;;;0.30;0.30;;;4.10;99.90;;;;;;4992891;28;20243;-70
2021/12/25 13:18:16;;;;;;;0.40;0.40;;;4.20;99.90;;;;;;4990717;28;20249;-71
2021/12/25 13:20:48;;;;;;;0.30;0.30;;;4.10;99.90;;;;;;5000496;28;20223;-70
2021/12/25 13:23:20;;;;;;;0.32;0.20;;;4.20;99.90;;;;;;4990987;28;20223;-69
2021/12/25 13:25:53;;;;;;;0.55;0.30;;;4.20;99.90;;;;;;4991918;28;20219;-68
2021/12/25 13:28:28;;;;;;;0.40;0.40;;;4.20;99.90;;;;;;4986977;28;20224;-69
2021/12/25 13:31:05;;;;;;;0.45;0.40;;;4.30;99.90;;;;;;5007317;28;20257;-71
2021/12/25 13:33:53;;;;;;;2.35;0.45;;;4.20;99.90;;;;;;4988638;28;20746;-72
2021/12/25 13:36:47;;;;;;;0.88;0.40;;;4.30;99.90;;;;;;4996784;28;20232;-73
2021/12/25 13:39:24;;;;;;;0.30;0.22;;;4.20;99.90;;;;;;5000692;28;20221;-71
2021/12/25 13:42:08;;;;;;;0.35;0.28;;;4.20;99.90;;;;;;4992357;28;20215;-73
2021/12/25 13:44:48;;;;;;;0.75;0.30;;;4.20;99.90;;;;;;4996104;28;20239;-73
2021/12/25 13:47:26;;;;;;;0.88;0.20;;;4.20;99.90;;;;;;4997039;28;20219;-73
2021/12/25 13:49:59;;;;;;;6.43;0.77;;;4.20;99.90;;;;;;5003924;28;20242;-73
2021/12/25 13:52:36;;;;;;;0.90;0.20;;;4.20;99.90;;;;;;5004088;28;20534;-73
2021/12/25 13:55:16;;;;;;;0.40;0.30;;;4.20;99.90;;;;;;5000821;28;20232;-72
2021/12/25 13:57:49;;;;;;;1.95;0.40;;;4.20;99.90;;;;;;5005712;28;20289;-72
2021/12/25 14:00:33;;;;;;;0.70;0.38;;;4.20;99.90;;;;;;4996351;28;20761;-74
2021/12/25 14:03:09;;;;;;;0.60;0.35;;;4.30;99.90;;;;;;4997125;28;20235;-73
2021/12/25 14:05:45;;;;;;;0.40;0.30;;;4.30;99.90;;;;;;4999674;28;20219;-73
2021/12/25 14:08:30;;;;;;;0.40;0.40;;;4.30;99.90;;;;;;4989047;28;20737;-71
2021/12/25 14:11:11;;;;;;;0.30;0.20;;;4.40;99.90;;;;;;4993637;28;20216;-73
2021/12/25 14:13:43;;;;;;;1.10;0.45;;;4.40;99.90;;;;;;4988720;28;20241;-72
2021/12/25 14:16:16;;;;;;;0.70;0.50;;;4.30;99.90;;;;;;5010666;28;20239;-73
2021/12/25 14:18:47;;;;;;;0.40;0.40;;;4.40;99.90;;;;;;5001819;28;20231;-73
2021/12/25 14:21:20;;;;;;;0.60;0.50;;;4.40;99.90;;;;;;5010475;28;20287;-73